sensor_id;sensor_type;location;lat;lon;timestamp;pressure;altitude;pressure_sealevel;temperature;humidity
81622;BME280;71029;50.742;7.090;2023-07-20T00:01:28;100919.25;;;20.85;54.60
81622;BME280;71029;50.742;7.090;2023-07-20T00:03:55;100921.31;;;20.83;54.88
81622;BME280;71029;50.742;7.090;2023-07-20T00:06:23;100915.91;;;20.83;54.74
81622;BME280;71029;50.742;7.090;2023-07-20T00:08:53;100925.03;;;20.89;54.57
81622;BME280;71029;50.742;7.090;2023-07-20T00:11:20;100923.16;;;20.89;54.45
81622;BME280;71029;50.742;7.090;2023-07-20T00:13:47;100925.91;;;20.83;54.60
81622;BME280;71029;50.742;7.090;2023-07-20T00:16:14;100928.63;;;20.83;54.28
81622;BME280;71029;50.742;7.090;2023-07-20T00:18:41;100925.75;;;20.78;54.85
81622;BME280;71029;50.742;7.090;2023-07-20T00:21:07;100932.81;;;20.79;55.10
81622;BME280;71029;50.742;7.090;2023-07-20T00:23:34;100925.53;;;20.79;54.31
81622;BME280;71029;50.742;7.090;2023-07-20T00:26:01;100929.03;;;20.86;54.76
81622;BME280;71029;50.742;7.090;2023-07-20T00:28:28;100916.56;;;20.79;55.54
81622;BME280;71029;50.742;7.090;2023-07-20T00:30:55;100915.03;;;20.58;57.17
81622;BME280;71029;50.742;7.090;2023-07-20T00:33:21;100914.97;;;20.64;56.53
81622;BME280;71029;50.742;7.090;2023-07-20T00:35:48;100914.56;;;20.61;56.92
81622;BME280;71029;50.742;7.090;2023-07-20T00:38:15;100915.06;;;20.45;58.57
81622;BME280;71029;50.742;7.090;2023-07-20T00:40:41;100919.81;;;20.56;58.02
81622;BME280;71029;50.742;7.090;2023-07-20T00:43:08;100913.34;;;20.57;58.09
81622;BME280;71029;50.742;7.090;2023-07-20T00:45:36;100922.28;;;20.64;58.07
81622;BME280;71029;50.742;7.090;2023-07-20T00:48:04;100919.94;;;20.67;58.19
81622;BME280;71029;50.742;7.090;2023-07-20T00:50:31;100922.28;;;20.64;57.65
81622;BME280;71029;50.742;7.090;2023-07-20T00:52:58;100922.78;;;20.48;58.64
81622;BME280;71029;50.742;7.090;2023-07-20T00:55:26;100915.94;;;20.38;59.26
81622;BME280;71029;50.742;7.090;2023-07-20T00:57:53;100920.50;;;20.38;59.67
81622;BME280;71029;50.742;7.090;2023-07-20T01:00:19;100922.22;;;20.26;60.16
81622;BME280;71029;50.742;7.090;2023-07-20T01:02:46;100919.94;;;20.29;60.18
81622;BME280;71029;50.742;7.090;2023-07-20T01:05:13;100916.09;;;20.50;59.60
81622;BME280;71029;50.742;7.090;2023-07-20T01:07:47;100927.34;;;20.54;59.35
81622;BME280;71029;50.742;7.090;2023-07-20T01:10:25;100926.91;;;20.50;59.70
81622;BME280;71029;50.742;7.090;2023-07-20T01:12:55;100910.88;;;20.55;59.23
81622;BME280;71029;50.742;7.090;2023-07-20T01:15:21;100916.94;;;20.51;59.46
81622;BME280;71029;50.742;7.090;2023-07-20T01:17:48;100920.91;;;20.48;59.88
81622;BME280;71029;50.742;7.090;2023-07-20T01:20:16;100919.25;;;20.34;60.46
81622;BME280;71029;50.742;7.090;2023-07-20T01:28:48;100919.69;;;20.37;60.65
81622;BME280;71029;50.742;7.090;2023-07-20T01:31:27;100921.53;;;20.44;60.53
81622;BME280;71029;50.742;7.090;2023-07-20T01:33:56;100917.81;;;20.38;60.64
81622;BME280;71029;50.742;7.090;2023-07-20T01:36:26;100915.50;;;20.35;60.41
81622;BME280;71029;50.742;7.090;2023-07-20T01:38:52;100908.88;;;20.37;60.65
81622;BME280;71029;50.742;7.090;2023-07-20T01:41:20;100911.38;;;20.32;61.02
81622;BME280;71029;50.742;7.090;2023-07-20T01:43:47;100908.88;;;20.31;61.15
81622;BME280;71029;50.742;7.090;2023-07-20T01:46:14;100914.28;;;20.37;60.94
81622;BME280;71029;50.742;7.090;2023-07-20T01:48:40;100911.72;;;20.43;60.60
81622;BME280;71029;50.742;7.090;2023-07-20T01:51:07;100899.69;;;20.38;61.16
81622;BME280;71029;50.742;7.090;2023-07-20T01:53:33;100912.41;;;20.31;61.45
81622;BME280;71029;50.742;7.090;2023-07-20T01:56:00;100905.16;;;20.25;61.88
81622;BME280;71029;50.742;7.090;2023-07-20T01:58:26;100905.53;;;20.35;61.24
81622;BME280;71029;50.742;7.090;2023-07-20T02:00:53;100894.88;;;20.40;61.17
81622;BME280;71029;50.742;7.090;2023-07-20T02:03:20;100898.91;;;20.31;61.44
81622;BME280;71029;50.742;7.090;2023-07-20T02:05:48;100900.91;;;20.43;60.99
81622;BME280;71029;50.742;7.090;2023-07-20T02:08:15;100906.56;;;20.34;60.97
81622;BME280;71029;50.742;7.090;2023-07-20T02:10:45;100905.09;;;20.38;61.07
81622;BME280;71029;50.742;7.090;2023-07-20T02:13:11;100902.59;;;20.44;60.52
81622;BME280;71029;50.742;7.090;2023-07-20T02:15:38;100908.19;;;20.42;60.73
81622;BME280;71029;50.742;7.090;2023-07-20T02:18:04;100907.38;;;20.42;61.06
81622;BME280;71029;50.742;7.090;2023-07-20T02:20:31;100908.88;;;20.37;60.82
81622;BME280;71029;50.742;7.090;2023-07-20T02:22:57;100904.44;;;20.43;60.87
81622;BME280;71029;50.742;7.090;2023-07-20T02:25:24;100898.00;;;20.44;60.67
81622;BME280;71029;50.742;7.090;2023-07-20T02:27:50;100892.44;;;20.32;61.15
81622;BME280;71029;50.742;7.090;2023-07-20T02:30:17;100892.69;;;20.24;61.49
81622;BME280;71029;50.742;7.090;2023-07-20T02:32:44;100898.06;;;20.31;60.82
81622;BME280;71029;50.742;7.090;2023-07-20T02:35:15;100891.19;;;20.28;61.18
81622;BME280;71029;50.742;7.090;2023-07-20T02:37:43;100899.72;;;20.32;60.74
81622;BME280;71029;50.742;7.090;2023-07-20T02:40:10;100892.69;;;20.24;61.15
81622;BME280;71029;50.742;7.090;2023-07-20T02:42:37;100891.63;;;20.25;61.07
81622;BME280;71029;50.742;7.090;2023-07-20T02:45:04;100895.34;;;20.31;61.15
81622;BME280;71029;50.742;7.090;2023-07-20T02:47:31;100898.28;;;20.29;60.93
81622;BME280;71029;50.742;7.090;2023-07-20T02:49:58;100897.03;;;20.25;60.94
81622;BME280;71029;50.742;7.090;2023-07-20T02:52:24;100900.38;;;20.21;60.96
81622;BME280;71029;50.742;7.090;2023-07-20T02:54:51;100895.41;;;20.18;61.23
81622;BME280;71029;50.742;7.090;2023-07-20T02:57:18;100901.66;;;20.18;61.25
81622;BME280;71029;50.742;7.090;2023-07-20T02:59:44;100909.75;;;20.18;60.86
81622;BME280;71029;50.742;7.090;2023-07-20T03:02:11;100908.94;;;20.18;61.11
81622;BME280;71029;50.742;7.090;2023-07-20T03:04:37;100907.28;;;20.10;61.47
81622;BME280;71029;50.742;7.090;2023-07-20T03:07:05;100896.84;;;20.20;61.10
81622;BME280;71029;50.742;7.090;2023-07-20T03:09:31;100899.63;;;20.07;61.58
81622;BME280;71029;50.742;7.090;2023-07-20T03:11:58;100906.06;;;20.06;61.22
81622;BME280;71029;50.742;7.090;2023-07-20T03:14:24;100906.69;;;20.08;61.14
81622;BME280;71029;50.742;7.090;2023-07-20T03:16:51;100905.19;;;20.12;60.98
81622;BME280;71029;50.742;7.090;2023-07-20T03:19:17;100903.75;;;20.09;61.37
81622;BME280;71029;50.742;7.090;2023-07-20T03:21:44;100904.81;;;20.08;61.19
81622;BME280;71029;50.742;7.090;2023-07-20T03:24:10;100907.09;;;20.05;61.18
81622;BME280;71029;50.742;7.090;2023-07-20T03:26:37;100908.34;;;20.09;61.28
81622;BME280;71029;50.742;7.090;2023-07-20T03:29:04;100913.78;;;19.96;61.25
81622;BME280;71029;50.742;7.090;2023-07-20T03:31:31;100918.13;;;20.03;60.81
81622;BME280;71029;50.742;7.090;2023-07-20T03:33:57;100915.66;;;19.95;60.89
81622;BME280;71029;50.742;7.090;2023-07-20T03:36:24;100914.59;;;19.96;61.22
81622;BME280;71029;50.742;7.090;2023-07-20T03:38:51;100913.19;;;19.87;61.14
81622;BME280;71029;50.742;7.090;2023-07-20T03:41:17;100919.41;;;19.88;60.99
81622;BME280;71029;50.742;7.090;2023-07-20T03:43:46;100924.22;;;19.86;61.06
81622;BME280;71029;50.742;7.090;2023-07-20T03:46:12;100917.34;;;19.90;61.05
81622;BME280;71029;50.742;7.090;2023-07-20T03:48:39;100924.78;;;20.01;60.66
81622;BME280;71029;50.742;7.090;2023-07-20T03:51:05;100925.03;;;19.93;60.57
81622;BME280;71029;50.742;7.090;2023-07-20T03:53:32;100930.44;;;19.93;60.77
81622;BME280;71029;50.742;7.090;2023-07-20T03:55:58;100931.09;;;19.81;61.15
81622;BME280;71029;50.742;7.090;2023-07-20T03:58:25;100932.34;;;19.72;61.09
81622;BME280;71029;50.742;7.090;2023-07-20T04:00:52;100931.09;;;19.75;61.08
81622;BME280;71029;50.742;7.090;2023-07-20T04:03:19;100929.44;;;19.74;61.01
81622;BME280;71029;50.742;7.090;2023-07-20T04:05:46;100926.06;;;19.92;60.73
81622;BME280;71029;50.742;7.090;2023-07-20T04:08:12;100926.91;;;19.86;60.55
81622;BME280;71029;50.742;7.090;2023-07-20T04:10:39;100919.03;;;19.84;60.39
81622;BME280;71029;50.742;7.090;2023-07-20T04:13:09;100930.50;;;19.66;61.21
81622;BME280;71029;50.742;7.090;2023-07-20T04:15:35;100919.84;;;19.84;60.63
81622;BME280;71029;50.742;7.090;2023-07-20T04:18:02;100927.13;;;19.91;60.21
81622;BME280;71029;50.742;7.090;2023-07-20T04:20:28;100928.78;;;19.92;59.89
81622;BME280;71029;50.742;7.090;2023-07-20T04:22:55;100935.66;;;19.81;60.39
81622;BME280;71029;50.742;7.090;2023-07-20T04:25:22;100933.38;;;19.84;60.13
81622;BME280;71029;50.742;7.090;2023-07-20T04:27:49;100927.13;;;19.91;60.05
81622;BME280;71029;50.742;7.090;2023-07-20T04:30:17;100926.28;;;19.90;60.19
81622;BME280;71029;50.742;7.090;2023-07-20T04:32:46;100928.34;;;19.88;60.07
81622;BME280;71029;50.742;7.090;2023-07-20T04:38:04;100941.09;;;19.74;60.48
81622;BME280;71029;50.742;7.090;2023-07-20T04:40:31;100936.50;;;19.81;60.18
81622;BME280;71029;50.742;7.090;2023-07-20T04:42:58;100945.44;;;19.75;60.40
81622;BME280;71029;50.742;7.090;2023-07-20T04:45:24;100946.66;;;19.79;59.89
81622;BME280;71029;50.742;7.090;2023-07-20T04:47:51;100948.56;;;19.72;60.42
81622;BME280;71029;50.742;7.090;2023-07-20T04:50:18;100952.94;;;19.60;60.59
81622;BME280;71029;50.742;7.090;2023-07-20T04:52:45;100951.03;;;19.80;59.76
81622;BME280;71029;50.742;7.090;2023-07-20T04:55:12;100954.38;;;19.69;60.28
81622;BME280;71029;50.742;7.090;2023-07-20T04:57:39;100946.06;;;19.64;60.26
81622;BME280;71029;50.742;7.090;2023-07-20T05:00:06;100954.78;;;19.53;60.91
81622;BME280;71029;50.742;7.090;2023-07-20T05:02:32;100954.16;;;19.64;60.61
81622;BME280;71029;50.742;7.090;2023-07-20T05:04:59;100952.31;;;19.58;60.85
81622;BME280;71029;50.742;7.090;2023-07-20T05:07:25;100958.13;;;19.68;60.29
81622;BME280;71029;50.742;7.090;2023-07-20T05:09:52;100950.63;;;19.64;60.63
81622;BME280;71029;50.742;7.090;2023-07-20T05:12:18;100947.53;;;19.73;60.35
81622;BME280;71029;50.742;7.090;2023-07-20T05:14:46;100946.72;;;19.60;60.81
81622;BME280;71029;50.742;7.090;2023-07-20T05:17:12;100954.38;;;19.63;61.23
81622;BME280;71029;50.742;7.090;2023-07-20T05:19:39;100948.56;;;19.52;61.37
81622;BME280;71029;50.742;7.090;2023-07-20T05:22:09;100951.47;;;19.51;61.19
81622;BME280;71029;50.742;7.090;2023-07-20T05:24:37;100959.56;;;19.51;61.22
81622;BME280;71029;50.742;7.090;2023-07-20T05:27:04;100954.16;;;19.51;61.53
81622;BME280;71029;50.742;7.090;2023-07-20T05:29:30;100960.22;;;19.66;61.04
81622;BME280;71029;50.742;7.090;2023-07-20T05:31:57;100954.59;;;19.61;61.01
81622;BME280;71029;50.742;7.090;2023-07-20T05:34:24;100964.78;;;19.59;61.20
81622;BME280;71029;50.742;7.090;2023-07-20T05:36:50;100946.69;;;19.73;60.60
81622;BME280;71029;50.742;7.090;2023-07-20T05:39:17;100952.94;;;19.67;60.86
81622;BME280;71029;50.742;7.090;2023-07-20T05:41:44;100958.75;;;19.70;60.54
81622;BME280;71029;50.742;7.090;2023-07-20T05:44:10;100961.44;;;19.70;60.66
81622;BME280;71029;50.742;7.090;2023-07-20T05:46:37;100954.19;;;19.58;61.27
81622;BME280;71029;50.742;7.090;2023-07-20T05:49:22;100963.97;;;19.65;60.79
81622;BME280;71029;50.742;7.090;2023-07-20T05:51:48;100963.50;;;19.55;61.21
81622;BME280;71029;50.742;7.090;2023-07-20T05:54:15;100961.88;;;19.67;60.89
81622;BME280;71029;50.742;7.090;2023-07-20T05:56:42;100976.84;;;19.70;60.64
81622;BME280;71029;50.742;7.090;2023-07-20T05:59:09;100966.25;;;19.62;61.06
81622;BME280;71029;50.742;7.090;2023-07-20T06:01:35;100968.06;;;19.54;61.38
81622;BME280;71029;50.742;7.090;2023-07-20T06:04:03;100970.19;;;19.66;60.90
81622;BME280;71029;50.742;7.090;2023-07-20T06:06:29;100969.16;;;19.73;60.69
81622;BME280;71029;50.742;7.090;2023-07-20T06:08:56;100969.78;;;19.75;60.92
81622;BME280;71029;50.742;7.090;2023-07-20T06:11:22;100978.31;;;19.59;61.41
81622;BME280;71029;50.742;7.090;2023-07-20T06:13:49;100971.22;;;19.71;61.04
81622;BME280;71029;50.742;7.090;2023-07-20T06:16:15;100973.53;;;19.74;60.86
81622;BME280;71029;50.742;7.090;2023-07-20T06:18:42;100972.03;;;19.78;60.74
81622;BME280;71029;50.742;7.090;2023-07-20T06:21:08;100972.66;;;19.80;60.88
81622;BME280;71029;50.742;7.090;2023-07-20T06:23:36;100982.25;;;19.70;60.94
81622;BME280;71029;50.742;7.090;2023-07-20T06:26:02;100975.19;;;19.62;61.19
81622;BME280;71029;50.742;7.090;2023-07-20T06:28:29;100973.53;;;19.74;60.56
81622;BME280;71029;50.742;7.090;2023-07-20T06:31:00;100976.63;;;19.71;60.67
81622;BME280;71029;50.742;7.090;2023-07-20T06:33:27;100969.56;;;19.64;61.70
81622;BME280;71029;50.742;7.090;2023-07-20T06:35:54;100974.97;;;19.77;60.60
81622;BME280;71029;50.742;7.090;2023-07-20T06:38:20;100976.59;;;19.91;60.32
81622;BME280;71029;50.742;7.090;2023-07-20T06:40:51;100986.16;;;19.80;60.59
81622;BME280;71029;50.742;7.090;2023-07-20T06:43:18;100980.38;;;19.70;60.99
81622;BME280;71029;50.742;7.090;2023-07-20T06:45:51;100981.81;;;19.73;61.32
81622;BME280;71029;50.742;7.090;2023-07-20T06:48:19;100982.84;;;19.92;60.70
81622;BME280;71029;50.742;7.090;2023-07-20T06:50:46;100985.31;;;20.00;60.04
81622;BME280;71029;50.742;7.090;2023-07-20T06:53:12;100977.59;;;20.03;60.06
81622;BME280;71029;50.742;7.090;2023-07-20T06:55:42;100978.47;;;19.97;59.95
81622;BME280;71029;50.742;7.090;2023-07-20T06:58:10;100983.84;;;20.04;60.24
81622;BME280;71029;50.742;7.090;2023-07-20T07:00:36;100988.44;;;19.97;60.15
81622;BME280;71029;50.742;7.090;2023-07-20T07:03:03;100991.34;;;19.89;60.23
81622;BME280;71029;50.742;7.090;2023-07-20T07:05:29;100987.22;;;19.86;60.59
81622;BME280;71029;50.742;7.090;2023-07-20T07:07:59;100995.53;;;19.98;60.12
81622;BME280;71029;50.742;7.090;2023-07-20T07:10:25;100992.63;;;19.99;60.16
81622;BME280;71029;50.742;7.090;2023-07-20T07:12:52;101000.28;;;19.96;59.65
81622;BME280;71029;50.742;7.090;2023-07-20T07:15:18;100997.38;;;20.04;60.21
81622;BME280;71029;50.742;7.090;2023-07-20T07:17:45;100995.91;;;20.08;59.46
81622;BME280;71029;50.742;7.090;2023-07-20T07:20:11;101000.06;;;20.17;59.56
81622;BME280;71029;50.742;7.090;2023-07-20T07:22:47;100995.91;;;20.08;59.62
81622;BME280;71029;50.742;7.090;2023-07-20T07:25:17;100990.75;;;20.00;59.83
81622;BME280;71029;50.742;7.090;2023-07-20T07:27:48;100997.16;;;20.12;59.28
81622;BME280;71029;50.742;7.090;2023-07-20T07:30:15;100989.84;;;20.12;59.69
81622;BME280;71029;50.742;7.090;2023-07-20T07:32:42;101002.56;;;20.12;59.73
81622;BME280;71029;50.742;7.090;2023-07-20T07:35:09;100996.75;;;20.08;59.42
81622;BME280;71029;50.742;7.090;2023-07-20T07:37:35;100991.50;;;20.20;59.00
81622;BME280;71029;50.742;7.090;2023-07-20T07:40:22;100994.66;;;20.17;58.94
81622;BME280;71029;50.742;7.090;2023-07-20T07:42:49;100997.97;;;20.12;59.26
81622;BME280;71029;50.742;7.090;2023-07-20T07:45:16;100998.00;;;20.06;59.51
81622;BME280;71029;50.742;7.090;2023-07-20T07:47:43;101004.66;;;20.10;59.07
81622;BME280;71029;50.742;7.090;2023-07-20T07:50:10;101000.03;;;20.24;58.57
81622;BME280;71029;50.742;7.090;2023-07-20T07:52:36;101004.44;;;20.11;58.76
81622;BME280;71029;50.742;7.090;2023-07-20T07:55:04;101004.41;;;20.18;58.38
81622;BME280;71029;50.742;7.090;2023-07-20T07:57:30;101011.25;;;20.27;58.52
81622;BME280;71029;50.742;7.090;2023-07-20T07:59:57;101017.72;;;20.26;58.14
81622;BME280;71029;50.742;7.090;2023-07-20T08:02:23;101011.25;;;20.27;57.80
81622;BME280;71029;50.742;7.090;2023-07-20T08:04:50;101019.16;;;20.29;57.58
81622;BME280;71029;50.742;7.090;2023-07-20T08:07:18;101014.41;;;20.24;58.37
81622;BME280;71029;50.742;7.090;2023-07-20T08:09:44;101005.03;;;20.20;58.09
81622;BME280;71029;50.742;7.090;2023-07-20T08:12:11;101012.75;;;20.23;58.25
81622;BME280;71029;50.742;7.090;2023-07-20T08:14:40;101010.44;;;20.20;58.26
81622;BME280;71029;50.742;7.090;2023-07-20T08:17:06;101016.72;;;20.14;58.25
81622;BME280;71029;50.742;7.090;2023-07-20T08:19:33;101009.63;;;20.13;58.60
81622;BME280;71029;50.742;7.090;2023-07-20T08:21:59;101022.06;;;20.27;57.76
81622;BME280;71029;50.742;7.090;2023-07-20T08:24:26;101010.41;;;20.47;57.67
81622;BME280;71029;50.742;7.090;2023-07-20T08:26:53;101015.38;;;20.50;57.59
81622;BME280;71029;50.742;7.090;2023-07-20T08:29:19;101011.03;;;20.49;58.17
81622;BME280;71029;50.742;7.090;2023-07-20T08:31:46;101013.72;;;20.49;57.55
81622;BME280;71029;50.742;7.090;2023-07-20T08:34:13;101014.13;;;20.52;57.44
81622;BME280;71029;50.742;7.090;2023-07-20T08:36:57;101021.25;;;20.47;56.87
81622;BME280;71029;50.742;7.090;2023-07-20T08:39:24;101014.94;;;20.53;57.49
81622;BME280;71029;50.742;7.090;2023-07-20T08:41:51;101019.38;;;20.47;57.62
81622;BME280;71029;50.742;7.090;2023-07-20T08:44:18;101017.69;;;20.39;55.92
81622;BME280;71029;50.742;7.090;2023-07-20T08:46:47;101019.59;;;20.46;56.27
81622;BME280;71029;50.742;7.090;2023-07-20T08:49:16;101015.81;;;20.47;56.66
81622;BME280;71029;50.742;7.090;2023-07-20T08:51:46;101013.06;;;20.60;56.44
81622;BME280;71029;50.742;7.090;2023-07-20T08:54:13;101007.41;;;20.68;56.45
81622;BME280;71029;50.742;7.090;2023-07-20T08:56:40;101012.19;;;20.66;55.90
81622;BME280;71029;50.742;7.090;2023-07-20T08:59:08;101008.88;;;20.71;56.10
81622;BME280;71029;50.742;7.090;2023-07-20T09:01:36;101011.59;;;20.64;55.48
81622;BME280;71029;50.742;7.090;2023-07-20T09:04:05;101013.69;;;20.62;55.29
81622;BME280;71029;50.742;7.090;2023-07-20T09:06:32;101002.66;;;20.63;54.93
81622;BME280;71029;50.742;7.090;2023-07-20T09:09:01;100996.41;;;20.63;54.25
81622;BME280;71029;50.742;7.090;2023-07-20T09:11:28;101002.44;;;20.65;54.28
81622;BME280;71029;50.742;7.090;2023-07-20T09:14:08;100997.00;;;20.72;54.35
81622;BME280;71029;50.742;7.090;2023-07-20T09:16:48;101000.22;;;20.93;54.92
81622;BME280;71029;50.742;7.090;2023-07-20T09:19:16;100997.50;;;20.93;53.77
81622;BME280;71029;50.742;7.090;2023-07-20T09:21:48;100997.78;;;20.79;54.27
81622;BME280;71029;50.742;7.090;2023-07-20T09:24:16;101004.06;;;20.73;53.77
81622;BME280;71029;50.742;7.090;2023-07-20T09:26:45;100999.84;;;20.77;54.31
81622;BME280;71029;50.742;7.090;2023-07-20T09:29:18;100997.78;;;20.79;54.16
81622;BME280;71029;50.742;7.090;2023-07-20T09:32:01;101003.59;;;20.82;53.94
81622;BME280;71029;50.742;7.090;2023-07-20T09:34:31;101004.03;;;20.79;52.71
81622;BME280;71029;50.742;7.090;2023-07-20T09:37:01;101005.47;;;20.82;52.92
81622;BME280;71029;50.742;7.090;2023-07-20T09:39:29;101005.22;;;20.90;52.26
81622;BME280;71029;50.742;7.090;2023-07-20T09:42:00;101011.03;;;20.93;52.43
81622;BME280;71029;50.742;7.090;2023-07-20T09:44:30;101002.28;;;20.91;52.75
81622;BME280;71029;50.742;7.090;2023-07-20T09:47:03;101004.16;;;20.91;52.47
81622;BME280;71029;50.742;7.090;2023-07-20T09:49:30;100999.31;;;21.00;51.72
81622;BME280;71029;50.742;7.090;2023-07-20T09:52:17;101000.81;;;20.95;52.22
81622;BME280;71029;50.742;7.090;2023-07-20T09:55:06;100988.94;;;20.97;52.11
81622;BME280;71029;50.742;7.090;2023-07-20T09:57:34;100988.69;;;21.05;52.74
81622;BME280;71029;50.742;7.090;2023-07-20T10:00:03;100990.94;;;21.08;51.90
81622;BME280;71029;50.742;7.090;2023-07-20T10:02:42;100985.16;;;21.04;51.73
81622;BME280;71029;50.742;7.090;2023-07-20T10:05:13;100986.69;;;20.93;50.60
81622;BME280;71029;50.742;7.090;2023-07-20T10:07:48;100992.69;;;20.95;50.67
81622;BME280;71029;50.742;7.090;2023-07-20T10:10:17;100982.66;;;21.03;50.34
81622;BME280;71029;50.742;7.090;2023-07-20T10:12:47;100984.97;;;20.99;49.92
81622;BME280;71029;50.742;7.090;2023-07-20T10:15:24;100977.06;;;20.98;50.11
81622;BME280;71029;50.742;7.090;2023-07-20T10:17:59;100987.88;;;20.98;50.31
81622;BME280;71029;50.742;7.090;2023-07-20T10:20:29;100977.25;;;21.03;50.06
81622;BME280;71029;50.742;7.090;2023-07-20T10:23:00;100978.44;;;21.07;50.12
81622;BME280;71029;50.742;7.090;2023-07-20T10:25:28;100980.94;;;21.08;50.21
81622;BME280;71029;50.742;7.090;2023-07-20T10:27:55;100974.28;;;21.11;50.52
81622;BME280;71029;50.742;7.090;2023-07-20T10:30:24;100979.44;;;21.19;50.59
81622;BME280;71029;50.742;7.090;2023-07-20T10:32:52;100977.13;;;21.16;50.60
81622;BME280;71029;50.742;7.090;2023-07-20T10:35:19;100973.03;;;21.07;50.21
81622;BME280;71029;50.742;7.090;2023-07-20T10:38:00;100975.59;;;21.02;50.22
81622;BME280;71029;50.742;7.090;2023-07-20T10:40:28;100964.50;;;21.10;50.11
81622;BME280;71029;50.742;7.090;2023-07-20T10:42:58;100964.31;;;21.05;49.97
81622;BME280;71029;50.742;7.090;2023-07-20T10:45:41;100960.78;;;21.04;50.02
81622;BME280;71029;50.742;7.090;2023-07-20T10:48:16;100958.94;;;20.98;49.66
81622;BME280;71029;50.742;7.090;2023-07-20T10:50:43;100953.06;;;21.01;50.09
81622;BME280;71029;50.742;7.090;2023-07-20T10:53:13;100949.25;;;21.09;49.94
81622;BME280;71029;50.742;7.090;2023-07-20T10:55:40;100947.28;;;21.22;49.65
81622;BME280;71029;50.742;7.090;2023-07-20T10:58:11;100950.00;;;21.22;49.32
81622;BME280;71029;50.742;7.090;2023-07-20T11:00:55;100940.41;;;21.27;49.24
81622;BME280;71029;50.742;7.090;2023-07-20T11:03:30;100947.34;;;21.16;49.67
81622;BME280;71029;50.742;7.090;2023-07-20T11:08:55;100941.78;;;21.11;49.40
81622;BME280;71029;50.742;7.090;2023-07-20T11:11:24;100934.84;;;21.15;48.92
81622;BME280;71029;50.742;7.090;2023-07-20T11:16:40;100942.91;;;21.28;48.71
81622;BME280;71029;50.742;7.090;2023-07-20T11:19:17;100943.97;;;21.27;48.68
81622;BME280;71029;50.742;7.090;2023-07-20T11:21:50;100942.09;;;21.21;47.81
81622;BME280;71029;50.742;7.090;2023-07-20T11:24:28;100944.34;;;21.24;48.25
81622;BME280;71029;50.742;7.090;2023-07-20T11:26:55;100943.75;;;21.22;48.10
81622;BME280;71029;50.742;7.090;2023-07-20T11:29:22;100944.34;;;21.24;47.63
81622;BME280;71029;50.742;7.090;2023-07-20T11:31:58;100943.16;;;21.20;47.95
81622;BME280;71029;50.742;7.090;2023-07-20T11:34:25;100940.22;;;21.21;47.59
81622;BME280;71029;50.742;7.090;2023-07-20T11:36:52;100938.56;;;21.27;47.81
81622;BME280;71029;50.742;7.090;2023-07-20T11:39:22;100935.41;;;21.23;46.84
81622;BME280;71029;50.742;7.090;2023-07-20T11:41:56;100942.09;;;21.21;46.85
81622;BME280;71029;50.742;7.090;2023-07-20T11:44:25;100947.34;;;21.16;47.64
81622;BME280;71029;50.742;7.090;2023-07-20T11:47:12;100944.16;;;21.26;47.10
81622;BME280;71029;50.742;7.090;2023-07-20T11:49:41;100940.59;;;21.32;47.11
81622;BME280;71029;50.742;7.090;2023-07-20T11:52:11;100940.16;;;21.35;47.19
81622;BME280;71029;50.742;7.090;2023-07-20T11:54:40;100938.88;;;21.37;47.52
81622;BME280;71029;50.742;7.090;2023-07-20T11:57:16;100939.72;;;21.38;48.20
81622;BME280;71029;50.742;7.090;2023-07-20T11:59:53;100942.03;;;21.34;47.97
81622;BME280;71029;50.742;7.090;2023-07-20T12:02:26;100936.50;;;21.47;47.98
81622;BME280;71029;50.742;7.090;2023-07-20T12:04:56;100933.47;;;21.37;47.85
81622;BME280;71029;50.742;7.090;2023-07-20T12:07:27;100939.75;;;21.31;48.08
81622;BME280;71029;50.742;7.090;2023-07-20T12:10:08;100932.03;;;21.35;48.51
81622;BME280;71029;50.742;7.090;2023-07-20T12:12:38;100924.72;;;21.35;47.66
81622;BME280;71029;50.742;7.090;2023-07-20T12:15:13;100919.97;;;21.31;47.99
81622;BME280;71029;50.742;7.090;2023-07-20T12:17:50;100923.22;;;21.39;47.35
81622;BME280;71029;50.742;7.090;2023-07-20T12:20:34;100922.34;;;21.45;46.81
81622;BME280;71029;50.742;7.090;2023-07-20T12:23:09;100924.69;;;21.42;47.00
81622;BME280;71029;50.742;7.090;2023-07-20T12:25:45;100927.38;;;21.42;46.79
81622;BME280;71029;50.742;7.090;2023-07-20T12:28:16;100920.63;;;21.51;47.28
81622;BME280;71029;50.742;7.090;2023-07-20T12:30:45;100913.97;;;21.47;47.43
81622;BME280;71029;50.742;7.090;2023-07-20T12:33:12;100907.13;;;21.44;47.43
81622;BME280;71029;50.742;7.090;2023-07-20T12:35:43;100911.66;;;21.50;47.18
81622;BME280;71029;50.742;7.090;2023-07-20T12:38:09;100912.31;;;21.46;46.99
81622;BME280;71029;50.742;7.090;2023-07-20T12:40:36;100901.78;;;21.56;46.84
81622;BME280;71029;50.742;7.090;2023-07-20T12:43:02;100901.59;;;21.58;46.92
81622;BME280;71029;50.742;7.090;2023-07-20T12:45:30;100904.75;;;21.55;46.51
81622;BME280;71029;50.742;7.090;2023-07-20T12:47:56;100901.72;;;21.44;46.84
81622;BME280;71029;50.742;7.090;2023-07-20T12:50:23;100906.25;;;21.50;45.76
81622;BME280;71029;50.742;7.090;2023-07-20T12:52:49;100901.25;;;21.47;45.94
81622;BME280;71029;50.742;7.090;2023-07-20T12:55:16;100894.41;;;21.45;45.37
81622;BME280;71029;50.742;7.090;2023-07-20T12:57:43;100894.50;;;21.57;45.65
81622;BME280;71029;50.742;7.090;2023-07-20T13:00:10;100894.34;;;21.52;46.01
81622;BME280;71029;50.742;7.090;2023-07-20T13:02:38;100891.19;;;21.55;46.00
81622;BME280;71029;50.742;7.090;2023-07-20T13:05:04;100891.66;;;21.52;45.41
81622;BME280;71029;50.742;7.090;2023-07-20T13:07:36;100891.72;;;21.63;45.05
81622;BME280;71029;50.742;7.090;2023-07-20T13:10:06;100896.91;;;21.65;44.64
81622;BME280;71029;50.742;7.090;2023-07-20T13:12:34;100879.75;;;21.71;44.73